Pietro Novelli — IOTQ — position and weather

sailwx.info

Track history (hours):
 
Tides and Currents Weather Stations Pressure Air Temp Water Temp Dewpoint Dewpoint Depression Visibility Wind Speed Wind Dir Waves Ship Positions

Pietro Novelli

Last reported at 2017-Jul-25 10:30 UTC. Time now 2017-Jul-25 10:36 UTC.
Position N 38°01' E 012°30'.

Length 91 m; draft 4 m.

Type: Ship. MMSI: 247000300.

Date/timePositionNaut miles runAvg speedWind from/ knotsBaromVisibWave heightAir tempDewpointWater temp
2017-Jul-25 10:30N 38°01' E 012°30'0 0.0
2017-Jul-25 10:00N 38°01' E 012°30'0 0.0
2017-Jul-25 09:30N 38°01' E 012°30'0 0.0
2017-Jul-25 09:00N 38°01' E 012°30'0 0.0
2017-Jul-25 08:30N 38°01' E 012°30'0 0.0
2017-Jul-24 18:56N 38°01' E 012°30'0 0.0
2017-Jul-24 18:30N 38°01' E 012°30'0 0.0
2017-Jul-24 18:00N 38°01' E 012°30'0 0.0
2017-Jul-24 17:30N 38°01' E 012°30'0 0.0
2017-Jul-24 17:00N 38°01' E 012°30'0 0.0
2017-Jul-24 16:30N 38°01' E 012°30'0 0.0
2017-Jul-24 16:00N 38°01' E 012°30'6612.4
2017-Jul-24 10:40N 36°59' E 011°60'15 1.7
2017-Jul-24 01:48N 37°13' E 012°05'1511.0
2017-Jul-24 00:24N 37°28' E 012°11'411.2
2017-Jul-24 00:00N 37°32' E 012°13'511.2
2017-Jul-23 23:30N 37°37' E 012°15'711.0
2017-Jul-23 22:51N 37°44' E 012°18'411.1
2017-Jul-23 22:30N 37°48' E 012°20'711.6
2017-Jul-23 21:55N 37°54' E 012°23'511.4
2017-Jul-23 21:30N 37°58' E 012°26'5 9.2
2017-Jul-23 21:00N 38°01' E 012°30'0 0.0
2017-Jul-23 20:30N 38°01' E 012°30'0 0.0
2017-Jul-23 20:00N 38°01' E 012°30'0 0.0
2017-Jul-23 19:30N 38°01' E 012°30'0 0.0
2017-Jul-23 19:00N 38°01' E 012°30'0 0.0
2017-Jul-23 18:30N 38°01' E 012°30'0 0.0
2017-Jul-23 18:00N 38°01' E 012°30'0 0.0
2017-Jul-23 17:30N 38°01' E 012°30'0 0.0
2017-Jul-23 17:00N 38°01' E 012°30'0 0.0
2017-Jul-23 16:30N 38°01' E 012°30'0 0.0
2017-Jul-23 16:00N 38°01' E 012°30'1 2.5
2017-Jul-23 15:30N 37°60' E 012°29'3 5.6
2017-Jul-23 15:00N 37°58' E 012°26'1914.2
2017-Jul-23 13:40N 37°42' E 012°16'314.9
2017-Jul-23 13:28N 37°39' E 012°14'714.9
2017-Jul-23 13:00N 37°32' E 012°12'814.6
2017-Jul-23 12:26N 37°24' E 012°09'1014.8
2017-Jul-23 11:46N 37°15' E 012°06'414.5
2017-Jul-23 11:30N 37°11' E 012°04'714.4
2017-Jul-23 11:00N 37°04' E 012°02'1014.4
2017-Jul-23 10:19N 36°54' E 011°58'5 0.8
2017-Jul-23 04:21N 36°50' E 011°56'3 8.7
2017-Jul-23 04:00N 36°53' E 011°56'510.4
2017-Jul-23 03:30N 36°58' E 011°57'510.5
2017-Jul-23 03:00N 37°03' E 011°57'5 9.9
2017-Jul-23 02:30N 37°08' E 012°00'510.3
2017-Jul-23 01:58N 37°13' E 012°03'510.2
2017-Jul-23 01:30N 37°17' E 012°05'510.4
2017-Jul-23 00:59N 37°22' E 012°07'510.5
2017-Jul-23 00:30N 37°27' E 012°09'510.9
2017-Jul-23 00:00N 37°32' E 012°12'1011.1
2017-Jul-22 23:08N 37°41' E 012°16'211.2
2017-Jul-22 22:59N 37°43' E 012°16'511.0
2017-Jul-22 22:30N 37°48' E 012°19'811.2
2017-Jul-22 21:48N 37°55' E 012°23'311.4
2017-Jul-22 21:30N 37°58' E 012°25'510.1
2017-Jul-22 21:00N 38°01' E 012°30'0 0.1
2017-Jul-22 20:30N 38°01' E 012°30'0 0.0
2017-Jul-22 20:00N 38°01' E 012°30'0 0.0
2017-Jul-22 19:30N 38°01' E 012°30'0 0.0
2017-Jul-22 19:00N 38°01' E 012°30'0 0.0
2017-Jul-22 18:30N 38°01' E 012°30'0 0.0
2017-Jul-22 18:00N 38°01' E 012°30'0 0.0
2017-Jul-22 17:30N 38°01' E 012°30'0 0.0
2017-Jul-22 17:00N 38°01' E 012°30'0 0.0
2017-Jul-22 16:30N 38°01' E 012°30'0 0.0
2017-Jul-22 16:00N 38°01' E 012°30'0 0.0
2017-Jul-22 15:30N 38°01' E 012°30'2 4.6
2017-Jul-22 15:00N 37°60' E 012°28'1515.1
2017-Jul-22 14:00N 37°47' E 012°18'815.2
2017-Jul-22 13:30N 37°39' E 012°15'815.1
2017-Jul-22 13:00N 37°32' E 012°12'714.8
2017-Jul-22 12:30N 37°25' E 012°10'714.9
2017-Jul-22 12:00N 37°18' E 012°07'814.6
2017-Jul-22 11:29N 37°11' E 012°04'714.6
2017-Jul-22 11:01N 37°04' E 012°02'814.6
2017-Jul-22 10:26N 36°56' E 011°59'6 2.3
2017-Jul-22 07:45N 36°50' E 011°56'0 0.0
2017-Jul-22 04:36N 36°50' E 011°56'0 0.0
2017-Jul-22 04:30N 36°50' E 011°56'3 5.7
2017-Jul-22 04:00N 36°53' E 011°56'510.7
2017-Jul-22 03:31N 36°58' E 011°58'511.0
2017-Jul-22 03:01N 37°03' E 011°60'610.8
2017-Jul-22 02:30N 37°08' E 012°02'610.4
2017-Jul-22 01:55N 37°14' E 012°05'410.2
2017-Jul-22 01:30N 37°18' E 012°07'610.7
2017-Jul-22 00:59N 37°23' E 012°09'510.9
2017-Jul-22 00:30N 37°28' E 012°11'511.1
2017-Jul-22 00:00N 37°34' E 012°13'810.7
2017-Jul-21 23:17N 37°41' E 012°16'311.0
2017-Jul-21 23:01N 37°44' E 012°18'610.8
2017-Jul-21 22:30N 37°49' E 012°20'510.9
2017-Jul-21 21:59N 37°54' E 012°22'611.5
2017-Jul-21 21:30N 37°59' E 012°26'4 7.7
2017-Jul-21 21:00N 38°01' E 012°30'0 0.0
2017-Jul-21 20:30N 38°01' E 012°30'0 0.0
2017-Jul-21 20:01N 38°01' E 012°30'0 0.0
2017-Jul-21 19:30N 38°01' E 012°30'0 0.0
2017-Jul-21 19:01N 38°01' E 012°30'0 0.0
2017-Jul-21 18:31N 38°01' E 012°30'0 0.0
2017-Jul-21 18:01N 38°01' E 012°30'0 0.0
2017-Jul-21 17:31N 38°01' E 012°30'0 0.0
2017-Jul-21 17:01N 38°01' E 012°30'0 0.0
2017-Jul-21 16:31N 38°01' E 012°30'0 0.0
2017-Jul-21 16:00N 38°01' E 012°30'0 0.0
2017-Jul-21 15:30N 38°01' E 012°30'2 3.2
2017-Jul-21 15:00N 37°60' E 012°29'714.5
2017-Jul-21 14:30N 37°55' E 012°23'815.2
2017-Jul-21 14:00N 37°48' E 012°19'814.8
2017-Jul-21 13:30N 37°40' E 012°15'815.3
2017-Jul-21 13:00N 37°33' E 012°12'815.3
2017-Jul-21 12:29N 37°26' E 012°09'715.0
2017-Jul-21 11:59N 37°19' E 012°06'814.9
2017-Jul-21 11:28N 37°11' E 012°04'715.0
2017-Jul-21 11:00N 37°04' E 012°02'714.8
2017-Jul-21 10:30N 36°57' E 011°59'714.5
2017-Jul-21 10:00N 36°50' E 011°57'0 0.3
2017-Jul-21 08:37N 36°50' E 011°56'0 0.0
2017-Jul-21 07:35N 36°50' E 011°56'0 0.0
2017-Jul-21 07:28N 36°50' E 011°56'0 0.0
2017-Jul-21 07:00N 36°50' E 011°56'0 0.0
2017-Jul-21 04:16N 36°50' E 011°56'5 9.8
2017-Jul-21 03:44N 36°55' E 011°57'310.3
2017-Jul-21 03:24N 36°59' E 011°58'510.5
2017-Jul-21 02:56N 37°03' E 011°60'710.4
2017-Jul-21 02:13N 37°10' E 012°03'710.5
2017-Jul-21 01:33N 37°17' E 012°06'110.6
2017-Jul-21 01:30N 37°18' E 012°06'1010.6
2017-Jul-21 00:34N 37°27' E 012°10'210.4
2017-Jul-21 00:24N 37°29' E 012°11'410.4
2017-Jul-20 23:58N 37°33' E 012°13'510.3
2017-Jul-20 23:30N 37°37' E 012°15'611.3
2017-Jul-20 23:00N 37°43' E 012°17'611.8
2017-Jul-20 22:30N 37°48' E 012°19'711.8
2017-Jul-20 21:56N 37°54' E 012°23'511.7
2017-Jul-20 21:30N 37°59' E 012°26'4 8.0
2017-Jul-20 21:00N 38°01' E 012°30'0 0.0
2017-Jul-20 20:30N 38°01' E 012°30'0 0.0
2017-Jul-20 20:00N 38°01' E 012°30'0 0.0
2017-Jul-20 19:30N 38°01' E 012°30'0 0.0
2017-Jul-20 19:00N 38°01' E 012°30'0 0.0
2017-Jul-20 18:30N 38°01' E 012°30'0 0.0
2017-Jul-20 18:00N 38°01' E 012°30'0 0.0
2017-Jul-20 17:30N 38°01' E 012°30'0 0.0
2017-Jul-20 17:00N 38°01' E 012°30'0 0.0
2017-Jul-20 16:30N 38°01' E 012°30'0 0.0
2017-Jul-20 16:00N 38°01' E 012°30'0 0.0
2017-Jul-20 15:30N 38°01' E 012°30'4 7.4
2017-Jul-20 15:00N 37°59' E 012°26'6914.8
2017-Jul-20 10:19N 36°54' E 011°57'56 5.0
2017-Jul-19 23:05N 37°47' E 012°18'111.2
2017-Jul-19 23:00N 37°48' E 012°19'711.4
2017-Jul-19 22:22N 37°55' E 012°23'411.3
2017-Jul-19 22:01N 37°58' E 012°25'5 9.6
2017-Jul-19 21:31N 38°01' E 012°30'0 0.0
2017-Jul-19 21:01N 38°01' E 012°30'0 0.0
2017-Jul-19 20:30N 38°01' E 012°30'0 0.0
2017-Jul-19 20:01N 38°01' E 012°30'0 0.0
2017-Jul-19 19:30N 38°01' E 012°30'0 0.0
2017-Jul-19 19:00N 38°01' E 012°30'0 0.0
2017-Jul-19 18:30N 38°01' E 012°30'0 0.0
2017-Jul-19 18:00N 38°01' E 012°30'0 0.0
2017-Jul-19 17:30N 38°01' E 012°30'0 0.0
2017-Jul-19 17:00N 38°01' E 012°30'0 0.0
2017-Jul-19 16:30N 38°01' E 012°30'0 0.0
2017-Jul-19 16:00N 38°01' E 012°30'0 0.0
2017-Jul-19 15:30N 38°01' E 012°30'3 6.2
2017-Jul-19 15:00N 37°59' E 012°27'815.2
2017-Jul-19 14:30N 37°53' E 012°22'714.8
2017-Jul-19 14:00N 37°46' E 012°18'5414.7
2017-Jul-19 10:18N 36°54' E 011°58'4 0.7
2017-Jul-19 04:18N 36°50' E 011°56'1710.8
2017-Jul-19 02:41N 37°07' E 012°02'2 9.9
2017-Jul-19 02:26N 37°09' E 012°03'1410.2
2017-Jul-19 01:05N 37°23' E 012°08'110.4
2017-Jul-19 01:00N 37°23' E 012°08'510.4
2017-Jul-19 00:30N 37°28' E 012°10'2010.6
2017-Jul-18 22:40N 37°47' E 012°17'210.8
2017-Jul-18 22:30N 37°49' E 012°18'611.2
2017-Jul-18 21:57N 37°54' E 012°22'510.9
2017-Jul-18 21:30N 37°58' E 012°26'5 8.8
2017-Jul-18 20:59N 38°01' E 012°30'0 0.0
2017-Jul-18 20:30N 38°01' E 012°30'0 0.0
2017-Jul-18 20:00N 38°01' E 012°30'0 0.0
2017-Jul-18 19:30N 38°01' E 012°30'0 0.0
2017-Jul-18 18:59N 38°01' E 012°30'0 0.0
2017-Jul-18 18:30N 38°01' E 012°30'0 0.0
2017-Jul-18 18:00N 38°01' E 012°30'0 0.0
2017-Jul-18 17:30N 38°01' E 012°30'0 0.0
2017-Jul-18 17:00N 38°01' E 012°30'0 0.0
2017-Jul-18 16:29N 38°01' E 012°30'0 0.0
2017-Jul-18 16:00N 38°01' E 012°30'0 0.1
2017-Jul-18 15:31N 38°01' E 012°30'611.6
2017-Jul-18 15:00N 37°57' E 012°25'6814.2
2017-Jul-18 10:12N 36°52' E 011°57'61 5.1
2017-Jul-17 22:13N 37°51' E 012°20'411.7
2017-Jul-17 21:53N 37°54' E 012°23'411.3
2017-Jul-17 21:30N 37°57' E 012°26'5 9.9
2017-Jul-17 21:00N 38°01' E 012°30'0 0.0
2017-Jul-17 20:30N 38°01' E 012°30'0 0.0
2017-Jul-17 20:00N 38°01' E 012°30'0 0.0
2017-Jul-17 19:30N 38°01' E 012°30'0 0.0
2017-Jul-17 19:00N 38°01' E 012°30'0 0.0
2017-Jul-17 18:30N 38°01' E 012°30'0 0.0
2017-Jul-17 18:00N 38°01' E 012°30'0 0.0
2017-Jul-17 17:29N 38°01' E 012°30'0 0.0
2017-Jul-17 17:00N 38°01' E 012°30'0 0.0
2017-Jul-17 16:30N 38°01' E 012°30'0 0.0
2017-Jul-17 16:00N 38°01' E 012°30'0 0.0
2017-Jul-17 15:30N 38°01' E 012°30'0 0.0
2017-Jul-17 15:00N 38°01' E 012°30'0 0.0
2017-Jul-17 14:29N 38°01' E 012°30'0 0.0
2017-Jul-17 14:00N 38°01' E 012°30'0 0.0
2017-Jul-17 13:30N 38°01' E 012°30'0 0.0
2017-Jul-17 13:00N 38°01' E 012°30'0 0.0
2017-Jul-17 12:30N 38°01' E 012°30'0 0.0
2017-Jul-17 12:00N 38°01' E 012°30'0 0.0
2017-Jul-17 11:30N 38°01' E 012°30'0 0.0
2017-Jul-17 10:59N 38°01' E 012°30'0 0.0
2017-Jul-17 10:30N 38°01' E 012°30'0 0.0
2017-Jul-17 10:00N 38°01' E 012°30'0 0.0
2017-Jul-17 09:30N 38°01' E 012°30'0 0.0
2017-Jul-17 09:00N 38°01' E 012°30'0 0.0
2017-Jul-17 08:30N 38°01' E 012°30'0 0.0
2017-Jul-17 08:00N 38°01' E 012°30'0 0.0
2017-Jul-17 07:30N 38°01' E 012°30'0 0.0
2017-Jul-17 07:00N 38°01' E 012°30'0 0.0
2017-Jul-17 06:30N 38°01' E 012°30'0 0.0
2017-Jul-17 06:00N 38°01' E 012°30'0 0.0
2017-Jul-17 05:30N 38°01' E 012°30'0 0.0
2017-Jul-17 04:59N 38°01' E 012°30'0 0.0
2017-Jul-17 04:30N 38°01' E 012°30'0 0.0
2017-Jul-17 04:00N 38°01' E 012°30'0 0.0
2017-Jul-17 03:30N 38°01' E 012°30'0 0.0
2017-Jul-17 03:00N 38°01' E 012°30'0 0.0
2017-Jul-17 02:30N 38°01' E 012°30'0 0.0
2017-Jul-17 02:00N 38°01' E 012°30'0 0.0
2017-Jul-17 01:30N 38°01' E 012°30'0 0.0
2017-Jul-17 01:00N 38°01' E 012°30'0 0.0
2017-Jul-17 00:30N 38°01' E 012°30'0 0.0
2017-Jul-17 00:00N 38°01' E 012°30'0 0.0
2017-Jul-16 23:30N 38°01' E 012°30'0 0.0
2017-Jul-16 23:00N 38°01' E 012°30'0 0.0
2017-Jul-16 22:30N 38°01' E 012°30'0 0.0
2017-Jul-16 22:00N 38°01' E 012°30'0 0.0
2017-Jul-16 21:29N 38°01' E 012°30'0 0.0
2017-Jul-16 21:00N 38°01' E 012°30'0 0.0
2017-Jul-16 20:30N 38°01' E 012°30'0 0.0
2017-Jul-16 20:00N 38°01' E 012°30'0 0.0
2017-Jul-16 19:30N 38°01' E 012°30'0 0.0
2017-Jul-16 19:00N 38°01' E 012°30'0 0.0
2017-Jul-16 18:30N 38°01' E 012°30'0 0.0
2017-Jul-16 18:00N 38°01' E 012°30'0 0.0
2017-Jul-16 17:30N 38°01' E 012°30'0 0.0
2017-Jul-16 17:00N 38°01' E 012°30'0 0.0
2017-Jul-16 16:30N 38°01' E 012°30'0 0.0
2017-Jul-16 16:00N 38°01' E 012°30'0 0.0
2017-Jul-16 15:30N 38°01' E 012°30'0 0.0
2017-Jul-16 15:00N 38°01' E 012°30'0 0.0
2017-Jul-16 14:30N 38°01' E 012°30'0 0.0
2017-Jul-16 14:00N 38°01' E 012°30'4 7.8
2017-Jul-16 13:30N 37°59' E 012°26'6 0.4
2017-Jul-15 22:03N 37°54' E 012°22'011.2
2017-Jul-15 22:00N 37°54' E 012°22'611.1
2017-Jul-15 21:30N 37°58' E 012°26'4 8.1
2017-Jul-15 21:00N 38°01' E 012°30'0 0.0
2017-Jul-15 20:30N 38°01' E 012°30'0 0.0
2017-Jul-15 20:00N 38°01' E 012°30'0 0.0
2017-Jul-15 19:29N 38°01' E 012°30'0 0.0
2017-Jul-15 19:01N 38°01' E 012°30'0 0.0
2017-Jul-15 18:30N 38°01' E 012°30'0 0.0
2017-Jul-15 18:00N 38°01' E 012°30'0 0.0
2017-Jul-15 17:30N 38°01' E 012°30'0 0.0
2017-Jul-15 16:59N 38°01' E 012°30'0 0.0
2017-Jul-15 16:29N 38°01' E 012°30'0 0.0
2017-Jul-15 16:00N 38°01' E 012°30'0 0.0
2017-Jul-15 15:30N 38°01' E 012°30'0 0.0
2017-Jul-15 15:00N 38°01' E 012°30'0 0.0
2017-Jul-15 14:00N 38°01' E 012°30'0 0.0
2017-Jul-15 13:31N 38°01' E 012°30'0 0.0
2017-Jul-15 13:00N 38°01' E 012°30'0 0.0
2017-Jul-15 12:30N 38°01' E 012°30'0 0.0
2017-Jul-15 12:00N 38°01' E 012°30'0 0.0
2017-Jul-15 11:28N 38°01' E 012°30'0 0.0
2017-Jul-15 11:00N 38°01' E 012°30'  
Track history (hours):
 
Tides and Currents Weather Stations Pressure Air Temp Water Temp Dewpoint Dewpoint Depression Visibility Wind Speed Wind Dir Waves Ship Positions

Pietro Novelli

Last reported at 2017-Jul-25 10:30 UTC. Time now 2017-Jul-25 10:36 UTC.
Position N 38°01' E 012°30'.

Length 91 m; draft 4 m.

Type: Ship. MMSI: 247000300.

Date/timePositionNaut miles runAvg speedWind from/ knotsBaromVisibWave heightAir tempDewpointWater temp
2017-Jul-25 10:30N 38°01' E 012°30'0 0.0
2017-Jul-25 10:00N 38°01' E 012°30'0 0.0
2017-Jul-25 09:30N 38°01' E 012°30'0 0.0
2017-Jul-25 09:00N 38°01' E 012°30'0 0.0
2017-Jul-25 08:30N 38°01' E 012°30'0 0.0
2017-Jul-24 18:56N 38°01' E 012°30'0 0.0
2017-Jul-24 18:30N 38°01' E 012°30'0 0.0
2017-Jul-24 18:00N 38°01' E 012°30'0 0.0
2017-Jul-24 17:30N 38°01' E 012°30'0 0.0
2017-Jul-24 17:00N 38°01' E 012°30'0 0.0
2017-Jul-24 16:30N 38°01' E 012°30'0 0.0
2017-Jul-24 16:00N 38°01' E 012°30'6612.4
2017-Jul-24 10:40N 36°59' E 011°60'15 1.7
2017-Jul-24 01:48N 37°13' E 012°05'1511.0
2017-Jul-24 00:24N 37°28' E 012°11'411.2
2017-Jul-24 00:00N 37°32' E 012°13'511.2
2017-Jul-23 23:30N 37°37' E 012°15'711.0
2017-Jul-23 22:51N 37°44' E 012°18'411.1
2017-Jul-23 22:30N 37°48' E 012°20'711.6
2017-Jul-23 21:55N 37°54' E 012°23'511.4
2017-Jul-23 21:30N 37°58' E 012°26'5 9.2
2017-Jul-23 21:00N 38°01' E 012°30'0 0.0
2017-Jul-23 20:30N 38°01' E 012°30'0 0.0
2017-Jul-23 20:00N 38°01' E 012°30'0 0.0
2017-Jul-23 19:30N 38°01' E 012°30'0 0.0
2017-Jul-23 19:00N 38°01' E 012°30'0 0.0
2017-Jul-23 18:30N 38°01' E 012°30'0 0.0
2017-Jul-23 18:00N 38°01' E 012°30'0 0.0
2017-Jul-23 17:30N 38°01' E 012°30'0 0.0
2017-Jul-23 17:00N 38°01' E 012°30'0 0.0
2017-Jul-23 16:30N 38°01' E 012°30'0 0.0
2017-Jul-23 16:00N 38°01' E 012°30'1 2.5
2017-Jul-23 15:30N 37°60' E 012°29'3 5.6
2017-Jul-23 15:00N 37°58' E 012°26'1914.2
2017-Jul-23 13:40N 37°42' E 012°16'314.9
2017-Jul-23 13:28N 37°39' E 012°14'714.9
2017-Jul-23 13:00N 37°32' E 012°12'814.6
2017-Jul-23 12:26N 37°24' E 012°09'1014.8
2017-Jul-23 11:46N 37°15' E 012°06'414.5
2017-Jul-23 11:30N 37°11' E 012°04'714.4
2017-Jul-23 11:00N 37°04' E 012°02'1014.4
2017-Jul-23 10:19N 36°54' E 011°58'5 0.8
2017-Jul-23 04:21N 36°50' E 011°56'3 8.7
2017-Jul-23 04:00N 36°53' E 011°56'510.4
2017-Jul-23 03:30N 36°58' E 011°57'510.5
2017-Jul-23 03:00N 37°03' E 011°57'5 9.9
2017-Jul-23 02:30N 37°08' E 012°00'510.3
2017-Jul-23 01:58N 37°13' E 012°03'510.2
2017-Jul-23 01:30N 37°17' E 012°05'510.4
2017-Jul-23 00:59N 37°22' E 012°07'510.5
2017-Jul-23 00:30N 37°27' E 012°09'510.9
2017-Jul-23 00:00N 37°32' E 012°12'1011.1
2017-Jul-22 23:08N 37°41' E 012°16'211.2
2017-Jul-22 22:59N 37°43' E 012°16'511.0
2017-Jul-22 22:30N 37°48' E 012°19'811.2
2017-Jul-22 21:48N 37°55' E 012°23'311.4
2017-Jul-22 21:30N 37°58' E 012°25'510.1
2017-Jul-22 21:00N 38°01' E 012°30'0 0.1
2017-Jul-22 20:30N 38°01' E 012°30'0 0.0
2017-Jul-22 20:00N 38°01' E 012°30'0 0.0
2017-Jul-22 19:30N 38°01' E 012°30'0 0.0
2017-Jul-22 19:00N 38°01' E 012°30'0 0.0
2017-Jul-22 18:30N 38°01' E 012°30'0 0.0
2017-Jul-22 18:00N 38°01' E 012°30'0 0.0
2017-Jul-22 17:30N 38°01' E 012°30'0 0.0
2017-Jul-22 17:00N 38°01' E 012°30'0 0.0
2017-Jul-22 16:30N 38°01' E 012°30'0 0.0
2017-Jul-22 16:00N 38°01' E 012°30'0 0.0
2017-Jul-22 15:30N 38°01' E 012°30'2 4.6
2017-Jul-22 15:00N 37°60' E 012°28'1515.1
2017-Jul-22 14:00N 37°47' E 012°18'815.2
2017-Jul-22 13:30N 37°39' E 012°15'815.1
2017-Jul-22 13:00N 37°32' E 012°12'714.8
2017-Jul-22 12:30N 37°25' E 012°10'714.9
2017-Jul-22 12:00N 37°18' E 012°07'814.6
2017-Jul-22 11:29N 37°11' E 012°04'714.6
2017-Jul-22 11:01N 37°04' E 012°02'814.6
2017-Jul-22 10:26N 36°56' E 011°59'6 2.3
2017-Jul-22 07:45N 36°50' E 011°56'0 0.0
2017-Jul-22 04:36N 36°50' E 011°56'0 0.0
2017-Jul-22 04:30N 36°50' E 011°56'3 5.7
2017-Jul-22 04:00N 36°53' E 011°56'510.7
2017-Jul-22 03:31N 36°58' E 011°58'511.0
2017-Jul-22 03:01N 37°03' E 011°60'610.8
2017-Jul-22 02:30N 37°08' E 012°02'610.4
2017-Jul-22 01:55N 37°14' E 012°05'410.2
2017-Jul-22 01:30N 37°18' E 012°07'610.7
2017-Jul-22 00:59N 37°23' E 012°09'510.9
2017-Jul-22 00:30N 37°28' E 012°11'511.1
2017-Jul-22 00:00N 37°34' E 012°13'810.7
2017-Jul-21 23:17N 37°41' E 012°16'311.0
2017-Jul-21 23:01N 37°44' E 012°18'610.8
2017-Jul-21 22:30N 37°49' E 012°20'510.9
2017-Jul-21 21:59N 37°54' E 012°22'611.5
2017-Jul-21 21:30N 37°59' E 012°26'4 7.7
2017-Jul-21 21:00N 38°01' E 012°30'0 0.0
2017-Jul-21 20:30N 38°01' E 012°30'0 0.0
2017-Jul-21 20:01N 38°01' E 012°30'0 0.0
2017-Jul-21 19:30N 38°01' E 012°30'0 0.0
2017-Jul-21 19:01N 38°01' E 012°30'0 0.0
2017-Jul-21 18:31N 38°01' E 012°30'0 0.0
2017-Jul-21 18:01N 38°01' E 012°30'0 0.0
2017-Jul-21 17:31N 38°01' E 012°30'0 0.0
2017-Jul-21 17:01N 38°01' E 012°30'0 0.0
2017-Jul-21 16:31N 38°01' E 012°30'0 0.0
2017-Jul-21 16:00N 38°01' E 012°30'0 0.0
2017-Jul-21 15:30N 38°01' E 012°30'2 3.2
2017-Jul-21 15:00N 37°60' E 012°29'714.5
2017-Jul-21 14:30N 37°55' E 012°23'815.2
2017-Jul-21 14:00N 37°48' E 012°19'814.8
2017-Jul-21 13:30N 37°40' E 012°15'815.3
2017-Jul-21 13:00N 37°33' E 012°12'815.3
2017-Jul-21 12:29N 37°26' E 012°09'715.0
2017-Jul-21 11:59N 37°19' E 012°06'814.9
2017-Jul-21 11:28N 37°11' E 012°04'715.0
2017-Jul-21 11:00N 37°04' E 012°02'714.8
2017-Jul-21 10:30N 36°57' E 011°59'714.5
2017-Jul-21 10:00N 36°50' E 011°57'0 0.3
2017-Jul-21 08:37N 36°50' E 011°56'0 0.0
2017-Jul-21 07:35N 36°50' E 011°56'0 0.0
2017-Jul-21 07:28N 36°50' E 011°56'0 0.0
2017-Jul-21 07:00N 36°50' E 011°56'0 0.0
2017-Jul-21 04:16N 36°50' E 011°56'5 9.8
2017-Jul-21 03:44N 36°55' E 011°57'310.3
2017-Jul-21 03:24N 36°59' E 011°58'510.5
2017-Jul-21 02:56N 37°03' E 011°60'710.4
2017-Jul-21 02:13N 37°10' E 012°03'710.5
2017-Jul-21 01:33N 37°17' E 012°06'110.6
2017-Jul-21 01:30N 37°18' E 012°06'1010.6
2017-Jul-21 00:34N 37°27' E 012°10'210.4
2017-Jul-21 00:24N 37°29' E 012°11'410.4
2017-Jul-20 23:58N 37°33' E 012°13'510.3
2017-Jul-20 23:30N 37°37' E 012°15'611.3
2017-Jul-20 23:00N 37°43' E 012°17'611.8
2017-Jul-20 22:30N 37°48' E 012°19'711.8
2017-Jul-20 21:56N 37°54' E 012°23'511.7
2017-Jul-20 21:30N 37°59' E 012°26'4 8.0
2017-Jul-20 21:00N 38°01' E 012°30'0 0.0
2017-Jul-20 20:30N 38°01' E 012°30'0 0.0
2017-Jul-20 20:00N 38°01' E 012°30'0 0.0
2017-Jul-20 19:30N 38°01' E 012°30'0 0.0
2017-Jul-20 19:00N 38°01' E 012°30'0 0.0
2017-Jul-20 18:30N 38°01' E 012°30'0 0.0
2017-Jul-20 18:00N 38°01' E 012°30'0 0.0
2017-Jul-20 17:30N 38°01' E 012°30'0 0.0
2017-Jul-20 17:00N 38°01' E 012°30'0 0.0
2017-Jul-20 16:30N 38°01' E 012°30'0 0.0
2017-Jul-20 16:00N 38°01' E 012°30'0 0.0
2017-Jul-20 15:30N 38°01' E 012°30'4 7.4
2017-Jul-20 15:00N 37°59' E 012°26'6914.8
2017-Jul-20 10:19N 36°54' E 011°57'56 5.0
2017-Jul-19 23:05N 37°47' E 012°18'111.2
2017-Jul-19 23:00N 37°48' E 012°19'711.4
2017-Jul-19 22:22N 37°55' E 012°23'411.3
2017-Jul-19 22:01N 37°58' E 012°25'5 9.6
2017-Jul-19 21:31N 38°01' E 012°30'0 0.0
2017-Jul-19 21:01N 38°01' E 012°30'0 0.0
2017-Jul-19 20:30N 38°01' E 012°30'0 0.0
2017-Jul-19 20:01N 38°01' E 012°30'0 0.0
2017-Jul-19 19:30N 38°01' E 012°30'0 0.0
2017-Jul-19 19:00N 38°01' E 012°30'0 0.0
2017-Jul-19 18:30N 38°01' E 012°30'0 0.0
2017-Jul-19 18:00N 38°01' E 012°30'0 0.0
2017-Jul-19 17:30N 38°01' E 012°30'0 0.0
2017-Jul-19 17:00N 38°01' E 012°30'0 0.0
2017-Jul-19 16:30N 38°01' E 012°30'0 0.0
2017-Jul-19 16:00N 38°01' E 012°30'0 0.0
2017-Jul-19 15:30N 38°01' E 012°30'3 6.2
2017-Jul-19 15:00N 37°59' E 012°27'815.2
2017-Jul-19 14:30N 37°53' E 012°22'714.8
2017-Jul-19 14:00N 37°46' E 012°18'5414.7
2017-Jul-19 10:18N 36°54' E 011°58'4 0.7
2017-Jul-19 04:18N 36°50' E 011°56'1710.8
2017-Jul-19 02:41N 37°07' E 012°02'2 9.9
2017-Jul-19 02:26N 37°09' E 012°03'1410.2
2017-Jul-19 01:05N 37°23' E 012°08'110.4
2017-Jul-19 01:00N 37°23' E 012°08'510.4
2017-Jul-19 00:30N 37°28' E 012°10'2010.6
2017-Jul-18 22:40N 37°47' E 012°17'210.8
2017-Jul-18 22:30N 37°49' E 012°18'611.2
2017-Jul-18 21:57N 37°54' E 012°22'510.9
2017-Jul-18 21:30N 37°58' E 012°26'5 8.8
2017-Jul-18 20:59N 38°01' E 012°30'0 0.0
2017-Jul-18 20:30N 38°01' E 012°30'0 0.0
2017-Jul-18 20:00N 38°01' E 012°30'0 0.0
2017-Jul-18 19:30N 38°01' E 012°30'0 0.0
2017-Jul-18 18:59N 38°01' E 012°30'0 0.0
2017-Jul-18 18:30N 38°01' E 012°30'0 0.0
2017-Jul-18 18:00N 38°01' E 012°30'0 0.0
2017-Jul-18 17:30N 38°01' E 012°30'0 0.0
2017-Jul-18 17:00N 38°01' E 012°30'0 0.0
2017-Jul-18 16:29N 38°01' E 012°30'0 0.0
2017-Jul-18 16:00N 38°01' E 012°30'0 0.1
2017-Jul-18 15:31N 38°01' E 012°30'611.6
2017-Jul-18 15:00N 37°57' E 012°25'6814.2
2017-Jul-18 10:12N 36°52' E 011°57'61 5.1
2017-Jul-17 22:13N 37°51' E 012°20'411.7
2017-Jul-17 21:53N 37°54' E 012°23'411.3
2017-Jul-17 21:30N 37°57' E 012°26'5 9.9
2017-Jul-17 21:00N 38°01' E 012°30'0 0.0
2017-Jul-17 20:30N 38°01' E 012°30'0 0.0
2017-Jul-17 20:00N 38°01' E 012°30'0 0.0
2017-Jul-17 19:30N 38°01' E 012°30'0 0.0
2017-Jul-17 19:00N 38°01' E 012°30'0 0.0
2017-Jul-17 18:30N 38°01' E 012°30'0 0.0
2017-Jul-17 18:00N 38°01' E 012°30'0 0.0
2017-Jul-17 17:29N 38°01' E 012°30'0 0.0
2017-Jul-17 17:00N 38°01' E 012°30'0 0.0
2017-Jul-17 16:30N 38°01' E 012°30'0 0.0
2017-Jul-17 16:00N 38°01' E 012°30'0 0.0
2017-Jul-17 15:30N 38°01' E 012°30'0 0.0
2017-Jul-17 15:00N 38°01' E 012°30'0 0.0
2017-Jul-17 14:29N 38°01' E 012°30'0 0.0
2017-Jul-17 14:00N 38°01' E 012°30'0 0.0
2017-Jul-17 13:30N 38°01' E 012°30'0 0.0
2017-Jul-17 13:00N 38°01' E 012°30'0 0.0
2017-Jul-17 12:30N 38°01' E 012°30'0 0.0
2017-Jul-17 12:00N 38°01' E 012°30'0 0.0
2017-Jul-17 11:30N 38°01' E 012°30'0 0.0
2017-Jul-17 10:59N 38°01' E 012°30'0 0.0
2017-Jul-17 10:30N 38°01' E 012°30'0 0.0
2017-Jul-17 10:00N 38°01' E 012°30'0 0.0
2017-Jul-17 09:30N 38°01' E 012°30'0 0.0
2017-Jul-17 09:00N 38°01' E 012°30'0 0.0
2017-Jul-17 08:30N 38°01' E 012°30'0 0.0
2017-Jul-17 08:00N 38°01' E 012°30'0 0.0
2017-Jul-17 07:30N 38°01' E 012°30'0 0.0
2017-Jul-17 07:00N 38°01' E 012°30'0 0.0
2017-Jul-17 06:30N 38°01' E 012°30'0 0.0
2017-Jul-17 06:00N 38°01' E 012°30'0 0.0
2017-Jul-17 05:30N 38°01' E 012°30'0 0.0
2017-Jul-17 04:59N 38°01' E 012°30'0 0.0
2017-Jul-17 04:30N 38°01' E 012°30'0 0.0
2017-Jul-17 04:00N 38°01' E 012°30'0 0.0
2017-Jul-17 03:30N 38°01' E 012°30'0 0.0
2017-Jul-17 03:00N 38°01' E 012°30'0 0.0
2017-Jul-17 02:30N 38°01' E 012°30'0 0.0
2017-Jul-17 02:00N 38°01' E 012°30'0 0.0
2017-Jul-17 01:30N 38°01' E 012°30'0 0.0
2017-Jul-17 01:00N 38°01' E 012°30'0 0.0
2017-Jul-17 00:30N 38°01' E 012°30'0 0.0
2017-Jul-17 00:00N 38°01' E 012°30'0 0.0
2017-Jul-16 23:30N 38°01' E 012°30'0 0.0
2017-Jul-16 23:00N 38°01' E 012°30'0 0.0
2017-Jul-16 22:30N 38°01' E 012°30'0 0.0
2017-Jul-16 22:00N 38°01' E 012°30'0 0.0
2017-Jul-16 21:29N 38°01' E 012°30'0 0.0
2017-Jul-16 21:00N 38°01' E 012°30'0 0.0
2017-Jul-16 20:30N 38°01' E 012°30'0 0.0
2017-Jul-16 20:00N 38°01' E 012°30'0 0.0
2017-Jul-16 19:30N 38°01' E 012°30'0 0.0
2017-Jul-16 19:00N 38°01' E 012°30'0 0.0
2017-Jul-16 18:30N 38°01' E 012°30'0 0.0
2017-Jul-16 18:00N 38°01' E 012°30'0 0.0
2017-Jul-16 17:30N 38°01' E 012°30'0 0.0
2017-Jul-16 17:00N 38°01' E 012°30'0 0.0
2017-Jul-16 16:30N 38°01' E 012°30'0 0.0
2017-Jul-16 16:00N 38°01' E 012°30'0 0.0
2017-Jul-16 15:30N 38°01' E 012°30'0 0.0
2017-Jul-16 15:00N 38°01' E 012°30'0 0.0
2017-Jul-16 14:30N 38°01' E 012°30'0 0.0
2017-Jul-16 14:00N 38°01' E 012°30'4 7.8
2017-Jul-16 13:30N 37°59' E 012°26'6 0.4
2017-Jul-15 22:03N 37°54' E 012°22'011.2
2017-Jul-15 22:00N 37°54' E 012°22'611.1
2017-Jul-15 21:30N 37°58' E 012°26'4 8.1
2017-Jul-15 21:00N 38°01' E 012°30'0 0.0
2017-Jul-15 20:30N 38°01' E 012°30'0 0.0
2017-Jul-15 20:00N 38°01' E 012°30'0 0.0
2017-Jul-15 19:29N 38°01' E 012°30'0 0.0
2017-Jul-15 19:01N 38°01' E 012°30'0 0.0
2017-Jul-15 18:30N 38°01' E 012°30'0 0.0
2017-Jul-15 18:00N 38°01' E 012°30'0 0.0
2017-Jul-15 17:30N 38°01' E 012°30'0 0.0
2017-Jul-15 16:59N 38°01' E 012°30'0 0.0
2017-Jul-15 16:29N 38°01' E 012°30'0 0.0
2017-Jul-15 16:00N 38°01' E 012°30'0 0.0
2017-Jul-15 15:30N 38°01' E 012°30'0 0.0
2017-Jul-15 15:00N 38°01' E 012°30'0 0.0
2017-Jul-15 14:00N 38°01' E 012°30'0 0.0
2017-Jul-15 13:31N 38°01' E 012°30'0 0.0
2017-Jul-15 13:00N 38°01' E 012°30'0 0.0
2017-Jul-15 12:30N 38°01' E 012°30'0 0.0
2017-Jul-15 12:00N 38°01' E 012°30'0 0.0
2017-Jul-15 11:28N 38°01' E 012°30'0 0.0
2017-Jul-15 11:00N 38°01' E 012°30'  

Dump ship's entire track history